SWA2533 KLAX-KDEN
Flight info
| Callsign | SWA2533 |
|---|---|
| Flight time | 1h 44m |
| Altitude | 36000 |
| Route | ORCKA5 LAS J146 DICEE BUMMP SSKII3 |
| Aircraft | B738/M-SDE2E3FGHIRWXY/LB1 |
Departure
| Time | 2026-04-22 20:25 |
|---|---|
| Airport | Los Angeles International Airport (KLAX) |
Arrival
| Time | 2026-04-22 22:10 |
|---|---|
| Airport | Denver International Airport (KDEN) |
| Time | Latitude | Longitude | Altitude | Speed | Heading |
|---|---|---|---|---|---|
| 2026-04-22 20:01 | 33.94115 | -118.40027 | 127 ft | 0 kts | 95° |
| 2026-04-22 20:16 | 33.94118 | -118.40047 | 121 ft | 4 kts | 108° |
| 2026-04-22 20:17 | 33.94130 | -118.40074 | 121 ft | 4 kts | 143° |
| 2026-04-22 20:17 | 33.94153 | -118.40086 | 123 ft | 2 kts | 173° |
| 2026-04-22 20:17 | 33.94155 | -118.40087 | 123 ft | 0 kts | 173° |
| 2026-04-22 20:20 | 33.94077 | -118.40075 | 125 ft | 24 kts | 172° |
| 2026-04-22 20:20 | 33.93915 | -118.40041 | 124 ft | 18 kts | 147° |
| 2026-04-22 20:21 | 33.93889 | -118.39898 | 125 ft | 21 kts | 83° |
| 2026-04-22 20:21 | 33.93909 | -118.39703 | 126 ft | 26 kts | 83° |
| 2026-04-22 20:21 | 33.93932 | -118.39468 | 127 ft | 31 kts | 83° |
| 2026-04-22 20:21 | 33.93958 | -118.39226 | 125 ft | 27 kts | 83° |
| 2026-04-22 20:22 | 33.93976 | -118.39054 | 127 ft | 17 kts | 83° |
| 2026-04-22 20:22 | 33.93988 | -118.38934 | 127 ft | 13 kts | 83° |
| 2026-04-22 20:22 | 33.94004 | -118.38769 | 125 ft | 30 kts | 82° |
| 2026-04-22 20:22 | 33.94035 | -118.38467 | 124 ft | 35 kts | 83° |
| 2026-04-22 20:23 | 33.94060 | -118.38217 | 126 ft | 18 kts | 83° |
| 2026-04-22 20:23 | 33.94067 | -118.38151 | 126 ft | 5 kts | 83° |
| 2026-04-22 20:23 | 33.94072 | -118.38101 | 126 ft | 8 kts | 83° |
| 2026-04-22 20:23 | 33.94077 | -118.38045 | 126 ft | 4 kts | 92° |
| 2026-04-22 20:24 | 33.94074 | -118.38031 | 126 ft | 0 kts | 108° |
| 2026-04-22 20:24 | 33.94024 | -118.38000 | 124 ft | 13 kts | 183° |
| 2026-04-22 20:25 | 33.93977 | -118.38102 | 127 ft | 25 kts | 263° |
| 2026-04-22 20:25 | 33.93923 | -118.38617 | 124 ft | 99 kts | 263° |
| 2026-04-22 20:25 | 33.93813 | -118.39689 | 211 ft | 148 kts | 262° |
| 2026-04-22 20:25 | 33.93688 | -118.40943 | 727 ft | 155 kts | 262° |
| 2026-04-22 20:26 | 33.93541 | -118.42397 | 900 ft | 197 kts | 261° |
| 2026-04-22 20:26 | 33.93363 | -118.44103 | 1737 ft | 200 kts | 261° |
| 2026-04-22 20:26 | 33.93192 | -118.45740 | 2864 ft | 199 kts | 262° |
| 2026-04-22 20:26 | 33.92784 | -118.47476 | 3113 ft | 236 kts | 249° |
| 2026-04-22 20:27 | 33.92139 | -118.49376 | 3805 ft | 250 kts | 248° |
| 2026-04-22 20:27 | 33.91437 | -118.51323 | 4710 ft | 256 kts | 248° |
| 2026-04-22 20:27 | 33.90699 | -118.53291 | 5638 ft | 261 kts | 248° |
| 2026-04-22 20:27 | 33.89675 | -118.55101 | 6537 ft | 270 kts | 224° |
| 2026-04-22 20:28 | 33.88025 | -118.56205 | 7401 ft | 282 kts | 198° |
| 2026-04-22 20:28 | 33.86043 | -118.56296 | 8310 ft | 293 kts | 170° |
| 2026-04-22 20:28 | 33.84200 | -118.55216 | 9208 ft | 303 kts | 140° |
| 2026-04-22 20:28 | 33.82987 | -118.53121 | 10063 ft | 312 kts | 108° |
| 2026-04-22 20:29 | 33.82787 | -118.50525 | 10738 ft | 319 kts | 77° |
| 2026-04-22 20:29 | 33.83687 | -118.48083 | 11228 ft | 327 kts | 46° |
| 2026-04-22 20:29 | 33.85501 | -118.46442 | 11715 ft | 329 kts | 19° |
| 2026-04-22 20:29 | 33.87698 | -118.45597 | 12372 ft | 333 kts | 8° |
| 2026-04-22 20:30 | 33.89979 | -118.44979 | 13077 ft | 340 kts | 7° |
| 2026-04-22 20:30 | 33.92218 | -118.43903 | 13815 ft | 357 kts | 27° |
| 2026-04-22 20:30 | 33.94077 | -118.41897 | 14487 ft | 373 kts | 47° |
| 2026-04-22 20:30 | 33.95123 | -118.40175 | 14938 ft | 378 kts | 51° |
| 2026-04-22 20:31 | 33.97081 | -118.36623 | 15826 ft | 387 kts | 53° |
| 2026-04-22 20:31 | 33.98583 | -118.33903 | 16472 ft | 392 kts | 52° |
| 2026-04-22 20:31 | 34.00130 | -118.31209 | 17108 ft | 397 kts | 51° |
| 2026-04-22 20:31 | 34.01719 | -118.28446 | 17755 ft | 403 kts | 51° |
| 2026-04-22 20:32 | 34.03308 | -118.25634 | 18410 ft | 409 kts | 52° |
| 2026-04-22 20:32 | 34.04390 | -118.23709 | 18796 ft | 412 kts | 52° |
| 2026-04-22 20:32 | 34.06546 | -118.19898 | 19530 ft | 418 kts | 51° |
| 2026-04-22 20:32 | 34.08201 | -118.16984 | 20074 ft | 422 kts | 52° |
| 2026-04-22 20:33 | 34.09303 | -118.15038 | 20444 ft | 425 kts | 52° |
| 2026-04-22 20:33 | 34.11550 | -118.11054 | 21174 ft | 431 kts | 52° |
| 2026-04-22 20:33 | 34.13247 | -118.08046 | 21706 ft | 436 kts | 52° |
| 2026-04-22 20:33 | 34.14966 | -118.04999 | 22232 ft | 440 kts | 52° |
| 2026-04-22 20:34 | 34.16108 | -118.02973 | 22579 ft | 443 kts | 52° |
| 2026-04-22 20:34 | 34.18425 | -117.98857 | 23264 ft | 449 kts | 52° |
| 2026-04-22 20:34 | 34.20187 | -117.95721 | 23760 ft | 454 kts | 52° |
| 2026-04-22 20:34 | 34.21969 | -117.92551 | 24193 ft | 458 kts | 52° |
| 2026-04-22 20:35 | 34.23764 | -117.89353 | 24624 ft | 461 kts | 52° |
| 2026-04-22 20:35 | 34.25577 | -117.86120 | 25062 ft | 465 kts | 52° |
| 2026-04-22 20:35 | 34.27397 | -117.82873 | 25488 ft | 468 kts | 52° |
| 2026-04-22 20:35 | 34.29229 | -117.79599 | 25930 ft | 471 kts | 52° |
| 2026-04-22 20:36 | 34.31070 | -117.76307 | 26326 ft | 474 kts | 52° |
| 2026-04-22 20:36 | 34.32927 | -117.72986 | 26747 ft | 477 kts | 53° |
| 2026-04-22 20:36 | 34.34783 | -117.69662 | 27152 ft | 479 kts | 52° |
| 2026-04-22 20:36 | 34.36723 | -117.66437 | 27552 ft | 481 kts | 50° |
| 2026-04-22 20:37 | 34.38612 | -117.63264 | 27949 ft | 484 kts | 51° |
| 2026-04-22 20:37 | 34.40591 | -117.59901 | 28359 ft | 487 kts | 50° |
| 2026-04-22 20:37 | 34.42579 | -117.56567 | 28751 ft | 489 kts | 50° |
| 2026-04-22 20:37 | 34.44590 | -117.53223 | 29132 ft | 492 kts | 50° |
| 2026-04-22 20:38 | 34.46602 | -117.49851 | 29534 ft | 496 kts | 50° |
| 2026-04-22 20:38 | 34.48622 | -117.46440 | 29902 ft | 499 kts | 50° |
| 2026-04-22 20:38 | 34.50652 | -117.43017 | 30349 ft | 499 kts | 50° |
| 2026-04-22 20:38 | 34.52681 | -117.39607 | 30763 ft | 498 kts | 50° |
| 2026-04-22 20:39 | 34.54706 | -117.36201 | 31159 ft | 498 kts | 50° |
| 2026-04-22 20:39 | 34.56725 | -117.32791 | 31567 ft | 498 kts | 50° |
| 2026-04-22 20:39 | 34.58750 | -117.29366 | 31967 ft | 498 kts | 50° |
| 2026-04-22 20:39 | 34.60769 | -117.25954 | 32341 ft | 498 kts | 50° |
| 2026-04-22 20:40 | 34.62788 | -117.22542 | 32701 ft | 498 kts | 50° |
| 2026-04-22 20:40 | 34.64696 | -117.19309 | 33053 ft | 498 kts | 50° |
| 2026-04-22 20:40 | 34.64927 | -117.18918 | 33105 ft | 498 kts | 50° |
| 2026-04-22 20:40 | 34.66946 | -117.15495 | 33406 ft | 498 kts | 50° |
| 2026-04-22 20:41 | 34.68937 | -117.12116 | 33768 ft | 498 kts | 49° |
| 2026-04-22 20:41 | 34.70953 | -117.08691 | 34132 ft | 498 kts | 49° |
| 2026-04-22 20:41 | 34.72969 | -117.05263 | 34442 ft | 498 kts | 49° |
| 2026-04-22 20:41 | 34.74981 | -117.01841 | 34713 ft | 498 kts | 49° |
| 2026-04-22 20:42 | 34.76998 | -116.98403 | 35030 ft | 499 kts | 49° |
| 2026-04-22 20:42 | 34.81028 | -116.91526 | 35084 ft | 494 kts | 49° |
| 2026-04-22 20:43 | 34.85029 | -116.84694 | 35118 ft | 498 kts | 49° |
| 2026-04-22 20:43 | 34.89042 | -116.77815 | 35106 ft | 497 kts | 49° |
| 2026-04-22 20:44 | 34.93183 | -116.71180 | 35116 ft | 490 kts | 40° |
| 2026-04-22 20:44 | 34.97841 | -116.65088 | 35093 ft | 490 kts | 40° |
| 2026-04-22 20:45 | 35.02483 | -116.58959 | 35076 ft | 491 kts | 40° |
| 2026-04-22 20:45 | 35.07123 | -116.52840 | 35055 ft | 491 kts | 40° |
| 2026-04-22 20:46 | 35.14039 | -116.43691 | 35033 ft | 490 kts | 40° |
| 2026-04-22 20:46 | 35.18677 | -116.37546 | 35058 ft | 491 kts | 40° |
| 2026-04-22 20:47 | 35.23327 | -116.31370 | 35056 ft | 493 kts | 41° |
| 2026-04-22 20:47 | 35.27936 | -116.25236 | 35059 ft | 492 kts | 41° |
| 2026-04-22 20:48 | 35.32569 | -116.19063 | 35049 ft | 492 kts | 41° |
| 2026-04-22 20:48 | 35.37194 | -116.12887 | 35061 ft | 492 kts | 41° |
| 2026-04-22 20:49 | 35.41825 | -116.06692 | 35060 ft | 493 kts | 41° |
| 2026-04-22 20:49 | 35.46455 | -116.00487 | 35076 ft | 493 kts | 41° |
| 2026-04-22 20:50 | 35.51090 | -115.94264 | 35080 ft | 493 kts | 41° |
| 2026-04-22 20:50 | 35.55730 | -115.88022 | 35079 ft | 494 kts | 41° |
| 2026-04-22 20:51 | 35.60363 | -115.81779 | 35081 ft | 494 kts | 41° |
| 2026-04-22 20:51 | 35.64964 | -115.75557 | 35084 ft | 495 kts | 41° |
| 2026-04-22 20:52 | 35.69542 | -115.69226 | 35082 ft | 494 kts | 42° |
| 2026-04-22 20:52 | 35.74129 | -115.62934 | 35088 ft | 493 kts | 41° |
| 2026-04-22 20:53 | 35.78679 | -115.56653 | 35080 ft | 494 kts | 42° |
| 2026-04-22 20:53 | 35.83267 | -115.50318 | 35088 ft | 499 kts | 42° |
| 2026-04-22 20:54 | 35.87976 | -115.43810 | 35075 ft | 517 kts | 42° |
| 2026-04-22 20:54 | 35.92837 | -115.37059 | 35073 ft | 532 kts | 42° |
| 2026-04-22 20:55 | 35.97767 | -115.30207 | 35062 ft | 536 kts | 42° |
| 2026-04-22 20:55 | 36.02723 | -115.23304 | 35044 ft | 535 kts | 42° |
| 2026-04-22 20:56 | 36.07458 | -115.16194 | 35050 ft | 543 kts | 54° |
| 2026-04-22 20:56 | 36.09196 | -115.12015 | 35046 ft | 549 kts | 66° |
| 2026-04-22 20:56 | 36.10563 | -115.07663 | 35045 ft | 550 kts | 67° |
| 2026-04-22 20:57 | 36.12829 | -115.00230 | 34987 ft | 550 kts | 67° |
| 2026-04-22 20:57 | 36.16004 | -114.89952 | 34989 ft | 549 kts | 67° |
| 2026-04-22 20:58 | 36.18247 | -114.82610 | 34982 ft | 548 kts | 67° |
| 2026-04-22 20:58 | 36.21413 | -114.72294 | 34967 ft | 548 kts | 67° |
| 2026-04-22 20:59 | 36.23656 | -114.64950 | 34955 ft | 548 kts | 67° |
| 2026-04-22 20:59 | 36.26785 | -114.54675 | 34952 ft | 548 kts | 67° |
| 2026-04-22 21:00 | 36.29027 | -114.47298 | 34958 ft | 551 kts | 67° |
| 2026-04-22 21:00 | 36.32182 | -114.36869 | 34966 ft | 552 kts | 68° |
| 2026-04-22 21:01 | 36.34863 | -114.27987 | 34950 ft | 552 kts | 68° |
| 2026-04-22 21:01 | 36.37098 | -114.20556 | 34953 ft | 552 kts | 68° |
| 2026-04-22 21:02 | 36.39780 | -114.11615 | 34961 ft | 551 kts | 68° |
| 2026-04-22 21:02 | 36.42448 | -114.02693 | 34959 ft | 552 kts | 68° |
| 2026-04-22 21:03 | 36.45550 | -113.92286 | 34967 ft | 552 kts | 68° |
| 2026-04-22 21:03 | 36.47758 | -113.84849 | 34973 ft | 552 kts | 68° |
| 2026-04-22 21:04 | 36.50415 | -113.75880 | 34970 ft | 552 kts | 68° |
| 2026-04-22 21:04 | 36.53059 | -113.66923 | 34958 ft | 551 kts | 68° |
| 2026-04-22 21:05 | 36.55692 | -113.57978 | 34956 ft | 551 kts | 68° |
| 2026-04-22 21:05 | 36.58321 | -113.49012 | 34945 ft | 551 kts | 68° |
| 2026-04-22 21:06 | 36.60940 | -113.40056 | 34971 ft | 551 kts | 68° |
| 2026-04-22 21:06 | 36.63545 | -113.31118 | 34960 ft | 552 kts | 68° |
| 2026-04-22 21:07 | 36.66157 | -113.22106 | 34965 ft | 553 kts | 69° |
| 2026-04-22 21:07 | 36.68764 | -113.13092 | 34978 ft | 552 kts | 69° |
| 2026-04-22 21:08 | 36.71362 | -113.04074 | 34991 ft | 552 kts | 69° |
| 2026-04-22 21:08 | 36.73947 | -112.95073 | 34998 ft | 552 kts | 69° |
| 2026-04-22 21:09 | 36.76510 | -112.86124 | 35010 ft | 552 kts | 69° |
| 2026-04-22 21:09 | 36.79089 | -112.77084 | 34986 ft | 552 kts | 69° |
| 2026-04-22 21:10 | 36.81656 | -112.68058 | 34948 ft | 552 kts | 69° |
| 2026-04-22 21:10 | 36.84223 | -112.59000 | 34911 ft | 552 kts | 69° |
| 2026-04-22 21:11 | 36.86756 | -112.50035 | 34891 ft | 552 kts | 69° |
| 2026-04-22 21:11 | 36.89296 | -112.41007 | 34865 ft | 544 kts | 70° |
| 2026-04-22 21:12 | 36.91808 | -112.32020 | 34857 ft | 547 kts | 70° |
| 2026-04-22 21:12 | 36.94309 | -112.23107 | 34858 ft | 547 kts | 70° |
| 2026-04-22 21:13 | 36.96812 | -112.14129 | 34841 ft | 547 kts | 70° |
| 2026-04-22 21:13 | 36.99320 | -112.05117 | 34820 ft | 548 kts | 70° |
| 2026-04-22 21:14 | 37.01817 | -111.96107 | 34824 ft | 548 kts | 70° |
| 2026-04-22 21:14 | 37.04301 | -111.87115 | 34805 ft | 548 kts | 70° |
| 2026-04-22 21:15 | 37.06795 | -111.78060 | 34791 ft | 553 kts | 70° |
| 2026-04-22 21:15 | 37.09298 | -111.68934 | 34792 ft | 554 kts | 70° |
| 2026-04-22 21:16 | 37.11795 | -111.59804 | 34787 ft | 554 kts | 70° |
| 2026-04-22 21:16 | 37.14266 | -111.50735 | 34865 ft | 553 kts | 70° |
| 2026-04-22 21:17 | 37.16746 | -111.41605 | 34850 ft | 553 kts | 70° |
| 2026-04-22 21:17 | 37.19212 | -111.32490 | 34816 ft | 553 kts | 71° |
| 2026-04-22 21:18 | 37.21690 | -111.23352 | 34782 ft | 553 kts | 68° |
| 2026-04-22 21:18 | 37.25005 | -111.14668 | 34768 ft | 551 kts | 60° |
| 2026-04-22 21:19 | 37.28445 | -111.06092 | 34756 ft | 547 kts | 62° |
| 2026-04-22 21:19 | 37.31813 | -110.97559 | 34773 ft | 548 kts | 61° |
| 2026-04-22 21:20 | 37.35228 | -110.88977 | 34774 ft | 549 kts | 62° |
| 2026-04-22 21:20 | 37.38617 | -110.80370 | 34755 ft | 548 kts | 62° |
| 2026-04-22 21:21 | 37.42007 | -110.71782 | 34764 ft | 547 kts | 62° |
| 2026-04-22 21:21 | 37.45375 | -110.63197 | 34767 ft | 546 kts | 62° |
| 2026-04-22 21:22 | 37.48741 | -110.54612 | 34774 ft | 547 kts | 62° |
| 2026-04-22 21:22 | 37.52080 | -110.46060 | 34781 ft | 548 kts | 62° |
| 2026-04-22 21:23 | 37.55442 | -110.37432 | 34775 ft | 550 kts | 62° |
| 2026-04-22 21:23 | 37.58812 | -110.28759 | 34798 ft | 550 kts | 62° |
| 2026-04-22 21:24 | 37.62167 | -110.20098 | 34810 ft | 549 kts | 62° |
| 2026-04-22 21:24 | 37.65512 | -110.11443 | 34803 ft | 549 kts | 62° |
| 2026-04-22 21:25 | 37.68855 | -110.02764 | 34820 ft | 550 kts | 62° |
| 2026-04-22 21:25 | 37.72199 | -109.94060 | 34818 ft | 550 kts | 63° |
| 2026-04-22 21:26 | 37.75514 | -109.85409 | 34823 ft | 551 kts | 62° |
| 2026-04-22 21:26 | 37.78841 | -109.76700 | 34824 ft | 547 kts | 63° |
| 2026-04-22 21:27 | 37.82139 | -109.68044 | 34866 ft | 547 kts | 63° |
| 2026-04-22 21:27 | 37.85437 | -109.59360 | 34867 ft | 548 kts | 63° |
| 2026-04-22 21:28 | 37.88728 | -109.50673 | 34854 ft | 547 kts | 63° |
| 2026-04-22 21:28 | 37.92000 | -109.42013 | 34824 ft | 547 kts | 63° |
| 2026-04-22 21:29 | 37.95275 | -109.33317 | 34810 ft | 547 kts | 63° |
| 2026-04-22 21:29 | 37.98564 | -109.24561 | 34815 ft | 551 kts | 63° |
| 2026-04-22 21:30 | 38.01853 | -109.15779 | 34819 ft | 551 kts | 63° |
| 2026-04-22 21:30 | 38.05133 | -109.06997 | 34797 ft | 549 kts | 63° |
| 2026-04-22 21:31 | 38.08397 | -108.98230 | 34787 ft | 549 kts | 63° |
| 2026-04-22 21:31 | 38.11735 | -108.89575 | 34788 ft | 549 kts | 62° |
| 2026-04-22 21:32 | 38.15123 | -108.80869 | 34767 ft | 549 kts | 62° |
| 2026-04-22 21:32 | 38.18554 | -108.72179 | 34770 ft | 549 kts | 62° |
| 2026-04-22 21:33 | 38.21931 | -108.63526 | 34774 ft | 549 kts | 62° |
| 2026-04-22 21:33 | 38.25328 | -108.54829 | 34466 ft | 545 kts | 62° |
| 2026-04-22 21:34 | 38.27011 | -108.50515 | 34285 ft | 541 kts | 62° |
| 2026-04-22 21:34 | 38.28668 | -108.46245 | 34090 ft | 537 kts | 62° |
| 2026-04-22 21:34 | 38.30318 | -108.41990 | 33824 ft | 535 kts | 62° |
| 2026-04-22 21:34 | 38.31965 | -108.37746 | 33623 ft | 531 kts | 62° |
| 2026-04-22 21:35 | 38.33597 | -108.33535 | 33388 ft | 526 kts | 62° |
| 2026-04-22 21:35 | 38.35187 | -108.29422 | 33142 ft | 522 kts | 62° |
| 2026-04-22 21:35 | 38.36780 | -108.25294 | 32925 ft | 517 kts | 62° |
| 2026-04-22 21:35 | 38.38357 | -108.21206 | 32668 ft | 512 kts | 62° |
| 2026-04-22 21:36 | 38.39925 | -108.17137 | 32419 ft | 508 kts | 62° |
| 2026-04-22 21:36 | 38.41476 | -108.13105 | 32163 ft | 505 kts | 62° |
| 2026-04-22 21:36 | 38.43017 | -108.09094 | 31894 ft | 501 kts | 62° |
| 2026-04-22 21:36 | 38.44546 | -108.05108 | 31647 ft | 498 kts | 62° |
| 2026-04-22 21:37 | 38.46062 | -108.01152 | 31392 ft | 495 kts | 62° |
| 2026-04-22 21:37 | 38.47567 | -107.97202 | 31119 ft | 493 kts | 63° |
| 2026-04-22 21:37 | 38.49047 | -107.93270 | 30836 ft | 490 kts | 63° |
| 2026-04-22 21:37 | 38.50521 | -107.89352 | 30541 ft | 487 kts | 63° |
| 2026-04-22 21:38 | 38.51967 | -107.85530 | 30281 ft | 485 kts | 63° |
| 2026-04-22 21:38 | 38.53432 | -107.81654 | 30002 ft | 482 kts | 63° |
| 2026-04-22 21:38 | 38.54883 | -107.77796 | 29484 ft | 480 kts | 63° |
| 2026-04-22 21:38 | 38.56321 | -107.73963 | 29252 ft | 478 kts | 63° |
| 2026-04-22 21:39 | 38.57758 | -107.70138 | 28893 ft | 476 kts | 63° |
| 2026-04-22 21:39 | 38.59187 | -107.66332 | 28559 ft | 475 kts | 64° |
| 2026-04-22 21:39 | 38.60611 | -107.62530 | 28224 ft | 473 kts | 64° |
| 2026-04-22 21:39 | 38.62027 | -107.58741 | 27927 ft | 471 kts | 64° |
| 2026-04-22 21:40 | 38.63436 | -107.54971 | 27621 ft | 469 kts | 64° |
| 2026-04-22 21:40 | 38.64839 | -107.51212 | 27330 ft | 466 kts | 64° |
| 2026-04-22 21:40 | 38.66238 | -107.47464 | 27034 ft | 464 kts | 64° |
| 2026-04-22 21:40 | 38.67643 | -107.43762 | 26805 ft | 459 kts | 63° |
| 2026-04-22 21:41 | 38.69018 | -107.40174 | 26812 ft | 451 kts | 63° |
| 2026-04-22 21:41 | 38.70403 | -107.36519 | 26808 ft | 459 kts | 64° |
| 2026-04-22 21:41 | 38.71787 | -107.32837 | 26806 ft | 457 kts | 64° |
| 2026-04-22 21:41 | 38.73168 | -107.29171 | 26837 ft | 458 kts | 64° |
| 2026-04-22 21:42 | 38.74558 | -107.25495 | 26819 ft | 457 kts | 64° |
| 2026-04-22 21:42 | 38.75928 | -107.21861 | 26820 ft | 458 kts | 64° |
| 2026-04-22 21:42 | 38.77328 | -107.18135 | 26822 ft | 458 kts | 64° |
| 2026-04-22 21:42 | 38.78688 | -107.14511 | 26818 ft | 457 kts | 64° |
| 2026-04-22 21:43 | 38.80067 | -107.10836 | 26818 ft | 458 kts | 64° |
| 2026-04-22 21:43 | 38.81449 | -107.07153 | 26820 ft | 459 kts | 64° |
| 2026-04-22 21:43 | 38.82826 | -107.03473 | 26778 ft | 458 kts | 64° |
| 2026-04-22 21:43 | 38.84200 | -106.99794 | 26783 ft | 454 kts | 64° |
| 2026-04-22 21:44 | 38.85573 | -106.96116 | 26782 ft | 456 kts | 64° |
| 2026-04-22 21:44 | 38.86937 | -106.92459 | 26788 ft | 455 kts | 64° |
| 2026-04-22 21:44 | 38.88309 | -106.88777 | 26752 ft | 458 kts | 64° |
| 2026-04-22 21:44 | 38.89660 | -106.85145 | 26777 ft | 455 kts | 64° |
| 2026-04-22 21:45 | 38.91024 | -106.81473 | 26793 ft | 454 kts | 64° |
| 2026-04-22 21:45 | 38.92377 | -106.77827 | 26797 ft | 454 kts | 64° |
| 2026-04-22 21:45 | 38.93741 | -106.74146 | 26815 ft | 455 kts | 64° |
| 2026-04-22 21:45 | 38.95093 | -106.70494 | 26809 ft | 454 kts | 64° |
| 2026-04-22 21:46 | 38.96447 | -106.66831 | 26805 ft | 453 kts | 64° |
| 2026-04-22 21:46 | 38.97801 | -106.63166 | 26802 ft | 453 kts | 64° |
| 2026-04-22 21:46 | 38.99151 | -106.59505 | 26803 ft | 454 kts | 64° |
| 2026-04-22 21:46 | 39.00482 | -106.55889 | 26850 ft | 452 kts | 64° |
| 2026-04-22 21:47 | 39.01840 | -106.52183 | 26888 ft | 452 kts | 64° |
| 2026-04-22 21:47 | 39.03162 | -106.48563 | 26900 ft | 453 kts | 64° |
| 2026-04-22 21:47 | 39.04498 | -106.44908 | 26931 ft | 450 kts | 64° |
| 2026-04-22 21:47 | 39.05829 | -106.41267 | 26973 ft | 450 kts | 64° |
| 2026-04-22 21:48 | 39.07169 | -106.37594 | 27000 ft | 454 kts | 64° |
| 2026-04-22 21:48 | 39.08510 | -106.33910 | 26978 ft | 453 kts | 65° |
| 2026-04-22 21:48 | 39.09833 | -106.30271 | 27059 ft | 441 kts | 65° |
| 2026-04-22 21:48 | 39.11141 | -106.26673 | 27058 ft | 449 kts | 65° |
| 2026-04-22 21:49 | 39.12461 | -106.23036 | 27050 ft | 446 kts | 65° |
| 2026-04-22 21:49 | 39.13771 | -106.19423 | 27035 ft | 447 kts | 65° |
| 2026-04-22 21:49 | 39.14642 | -106.17016 | 27027 ft | 447 kts | 65° |
| 2026-04-22 21:49 | 39.15961 | -106.13369 | 26853 ft | 450 kts | 65° |
| 2026-04-22 21:50 | 39.17276 | -106.09713 | 26403 ft | 448 kts | 65° |
| 2026-04-22 21:50 | 39.18584 | -106.06066 | 25932 ft | 444 kts | 65° |
| 2026-04-22 21:50 | 39.20298 | -106.01295 | 25302 ft | 440 kts | 66° |
| 2026-04-22 21:50 | 39.21575 | -105.97734 | 24822 ft | 437 kts | 66° |
| 2026-04-22 21:51 | 39.22422 | -105.95371 | 24518 ft | 434 kts | 66° |
| 2026-04-22 21:51 | 39.24108 | -105.90654 | 23828 ft | 431 kts | 66° |
| 2026-04-22 21:51 | 39.25368 | -105.87154 | 23414 ft | 428 kts | 66° |
| 2026-04-22 21:52 | 39.27450 | -105.81400 | 22667 ft | 423 kts | 66° |
| 2026-04-22 21:52 | 39.28681 | -105.77973 | 22240 ft | 419 kts | 66° |
| 2026-04-22 21:52 | 39.29900 | -105.74571 | 21826 ft | 415 kts | 66° |
| 2026-04-22 21:52 | 39.31107 | -105.71209 | 21426 ft | 411 kts | 66° |
| 2026-04-22 21:53 | 39.32292 | -105.67905 | 21032 ft | 408 kts | 66° |
| 2026-04-22 21:53 | 39.33499 | -105.64557 | 20630 ft | 405 kts | 65° |
| 2026-04-22 21:53 | 39.34687 | -105.61328 | 20217 ft | 401 kts | 65° |
| 2026-04-22 21:53 | 39.35896 | -105.58044 | 19827 ft | 399 kts | 65° |
| 2026-04-22 21:54 | 39.37058 | -105.54851 | 19442 ft | 396 kts | 65° |
| 2026-04-22 21:54 | 39.38221 | -105.51641 | 19055 ft | 392 kts | 65° |
| 2026-04-22 21:54 | 39.39375 | -105.48468 | 18641 ft | 390 kts | 65° |
| 2026-04-22 21:54 | 39.40528 | -105.45300 | 18258 ft | 389 kts | 65° |
| 2026-04-22 21:55 | 39.41537 | -105.42058 | 17871 ft | 385 kts | 81° |
| 2026-04-22 21:55 | 39.41766 | -105.38680 | 17476 ft | 377 kts | 92° |
| 2026-04-22 21:55 | 39.41759 | -105.35333 | 17080 ft | 373 kts | 95° |
| 2026-04-22 21:55 | 39.41715 | -105.31994 | 16714 ft | 371 kts | 94° |
| 2026-04-22 21:56 | 39.41734 | -105.28661 | 16326 ft | 369 kts | 92° |
| 2026-04-22 21:56 | 39.41782 | -105.25368 | 15983 ft | 365 kts | 92° |
| 2026-04-22 21:56 | 39.41804 | -105.22081 | 15629 ft | 362 kts | 93° |
| 2026-04-22 21:56 | 39.41807 | -105.18903 | 15268 ft | 359 kts | 93° |
| 2026-04-22 21:57 | 39.41816 | -105.15643 | 14895 ft | 358 kts | 92° |
| 2026-04-22 21:57 | 39.41836 | -105.12395 | 14582 ft | 344 kts | 92° |
| 2026-04-22 21:57 | 39.41856 | -105.09480 | 14266 ft | 315 kts | 93° |
| 2026-04-22 21:57 | 39.41866 | -105.06756 | 13927 ft | 292 kts | 94° |
| 2026-04-22 21:58 | 39.41871 | -105.04219 | 13644 ft | 274 kts | 94° |
| 2026-04-22 21:58 | 39.41876 | -105.01815 | 13366 ft | 261 kts | 94° |
| 2026-04-22 21:58 | 39.41884 | -104.99537 | 13234 ft | 245 kts | 94° |
| 2026-04-22 21:58 | 39.41893 | -104.97395 | 12991 ft | 230 kts | 95° |
| 2026-04-22 21:59 | 39.41897 | -104.95378 | 12773 ft | 221 kts | 95° |
| 2026-04-22 21:59 | 39.41986 | -104.93392 | 12575 ft | 224 kts | 86° |
| 2026-04-22 21:59 | 39.42172 | -104.91384 | 12353 ft | 227 kts | 88° |
| 2026-04-22 21:59 | 39.42342 | -104.89357 | 12146 ft | 226 kts | 88° |
| 2026-04-22 22:00 | 39.42518 | -104.87344 | 11936 ft | 224 kts | 88° |
| 2026-04-22 22:00 | 39.42697 | -104.85337 | 11709 ft | 222 kts | 88° |
| 2026-04-22 22:00 | 39.42870 | -104.83375 | 11518 ft | 225 kts | 88° |
| 2026-04-22 22:00 | 39.43051 | -104.81336 | 11301 ft | 225 kts | 88° |
| 2026-04-22 22:01 | 39.43226 | -104.79363 | 11077 ft | 219 kts | 87° |
| 2026-04-22 22:01 | 39.43410 | -104.77419 | 10869 ft | 218 kts | 83° |
| 2026-04-22 22:01 | 39.44118 | -104.75678 | 10704 ft | 219 kts | 43° |
| 2026-04-22 22:01 | 39.45299 | -104.74416 | 10693 ft | 218 kts | 33° |
| 2026-04-22 22:02 | 39.46510 | -104.73257 | 10714 ft | 220 kts | 32° |
| 2026-04-22 22:02 | 39.47709 | -104.72097 | 10698 ft | 213 kts | 33° |
| 2026-04-22 22:02 | 39.48904 | -104.70920 | 10705 ft | 216 kts | 34° |
| 2026-04-22 22:02 | 39.50116 | -104.69724 | 10713 ft | 220 kts | 33° |
| 2026-04-22 22:03 | 39.51337 | -104.68520 | 10691 ft | 221 kts | 33° |
| 2026-04-22 22:03 | 39.52548 | -104.67328 | 10706 ft | 221 kts | 33° |
| 2026-04-22 22:03 | 39.53873 | -104.66464 | 10635 ft | 205 kts | 4° |
| 2026-04-22 22:03 | 39.55265 | -104.66364 | 10375 ft | 200 kts | 352° |
| 2026-04-22 22:04 | 39.56643 | -104.66363 | 10104 ft | 194 kts | 352° |
| 2026-04-22 22:04 | 39.57984 | -104.66352 | 9845 ft | 193 kts | 352° |
| 2026-04-22 22:04 | 39.59324 | -104.66338 | 9611 ft | 193 kts | 352° |
| 2026-04-22 22:04 | 39.60691 | -104.66323 | 9352 ft | 192 kts | 353° |
| 2026-04-22 22:05 | 39.62028 | -104.66305 | 9102 ft | 195 kts | 353° |
| 2026-04-22 22:05 | 39.63384 | -104.66290 | 8864 ft | 194 kts | 353° |
| 2026-04-22 22:05 | 39.64720 | -104.66272 | 8606 ft | 190 kts | 355° |
| 2026-04-22 22:05 | 39.66030 | -104.66256 | 8372 ft | 191 kts | 352° |
| 2026-04-22 22:06 | 39.67365 | -104.66242 | 8119 ft | 190 kts | 353° |
| 2026-04-22 22:06 | 39.68684 | -104.66224 | 7878 ft | 190 kts | 353° |
| 2026-04-22 22:06 | 39.70008 | -104.66209 | 7628 ft | 190 kts | 353° |
| 2026-04-22 22:06 | 39.71329 | -104.66194 | 7377 ft | 188 kts | 353° |
| 2026-04-22 22:07 | 39.72631 | -104.66178 | 7143 ft | 190 kts | 352° |
| 2026-04-22 22:07 | 39.73951 | -104.66163 | 6898 ft | 190 kts | 353° |
| 2026-04-22 22:07 | 39.75254 | -104.66145 | 6651 ft | 185 kts | 353° |
| 2026-04-22 22:07 | 39.76551 | -104.66134 | 6386 ft | 188 kts | 353° |
| 2026-04-22 22:08 | 39.77801 | -104.66114 | 6088 ft | 169 kts | 353° |
| 2026-04-22 22:08 | 39.78937 | -104.66082 | 6004 ft | 162 kts | 354° |
| 2026-04-22 22:08 | 39.80095 | -104.66079 | 5948 ft | 168 kts | 352° |
| 2026-04-22 22:08 | 39.81208 | -104.66052 | 5745 ft | 155 kts | 355° |
| 2026-04-22 22:09 | 39.82274 | -104.66056 | 5532 ft | 151 kts | 358° |
| 2026-04-22 22:09 | 39.83308 | -104.66048 | 5365 ft | 142 kts | 360° |
| 2026-04-22 22:09 | 39.84187 | -104.66039 | 5373 ft | 105 kts | 0° |
| 2026-04-22 22:09 | 39.84732 | -104.66033 | 5377 ft | 64 kts | 0° |
| 2026-04-22 22:10 | 39.85122 | -104.66062 | 5379 ft | 45 kts | 345° |
| 2026-04-22 22:10 | 39.85323 | -104.66179 | 5386 ft | 24 kts | 332° |
| 2026-04-22 22:10 | 39.85457 | -104.66233 | 5390 ft | 18 kts | 355° |
| 2026-04-22 22:10 | 39.85574 | -104.66268 | 5391 ft | 17 kts | 306° |
| 2026-04-22 22:11 | 39.85585 | -104.66439 | 5389 ft | 21 kts | 269° |
| 2026-04-22 22:11 | 39.85590 | -104.66644 | 5385 ft | 24 kts | 288° |
| 2026-04-22 22:11 | 39.85691 | -104.66816 | 5383 ft | 17 kts | 330° |
| 2026-04-22 22:11 | 39.85729 | -104.66925 | 5382 ft | 9 kts | 285° |
| 2026-04-22 22:12 | 39.85762 | -104.66955 | 5382 ft | 5 kts | 349° |
| 2026-04-22 22:12 | 39.85784 | -104.66956 | 5382 ft | 1 kts | 0° |
| 2026-04-22 22:12 | 39.85788 | -104.66956 | 5382 ft | 1 kts | 0° |
| 2026-04-22 22:12 | 39.85796 | -104.66956 | 5382 ft | 3 kts | 0° |
| 2026-04-22 22:13 | 39.85811 | -104.66955 | 5381 ft | 0 kts | 1° |